Time;durP1;ratioP1;P1;durP2;ratioP2;P2;SDS_P1;SDS_P2;PMS_P1;PMS_P2;Temp;Humidity;BMP_temperature;BMP_pressure;BME280_temperature;BME280_humidity;BME280_pressure;Samples;Min_cycle;Max_cycle;Signal;HPM_P1;HPM_P2
2023/05/24 00:00:11;;;;;;;5.78;1.40;;;21.30;60.00;;;;;;5075035;28;20086;-68
2023/05/24 00:02:40;;;;;;;4.68;1.40;;;21.30;60.00;;;;;;5073867;28;20042;-68
2023/05/24 00:05:10;;;;;;;4.03;1.20;;;21.30;60.00;;;;;;5073015;28;20045;-68
2023/05/24 00:07:36;;;;;;;4.32;1.17;;;21.20;60.00;;;;;;5074356;28;20123;-67
2023/05/24 00:10:03;;;;;;;3.78;1.50;;;21.30;60.00;;;;;;5072549;28;20090;-68
2023/05/24 00:12:28;;;;;;;3.78;1.17;;;21.30;60.00;;;;;;5074070;28;20411;-68
2023/05/24 00:14:54;;;;;;;5.03;1.38;;;21.20;60.00;;;;;;5074393;28;20033;-68
2023/05/24 00:17:20;;;;;;;6.40;1.70;;;21.20;59.90;;;;;;5073408;28;20488;-67
2023/05/24 00:19:46;;;;;;;6.10;1.60;;;21.20;59.90;;;;;;5072963;28;20450;-68
2023/05/24 00:22:12;;;;;;;5.90;1.65;;;21.20;59.90;;;;;;5072792;28;20044;-67
2023/05/24 00:24:38;;;;;;;6.35;1.52;;;21.20;59.90;;;;;;5072234;28;20078;-68
2023/05/24 00:27:04;;;;;;;4.55;1.52;;;21.20;59.90;;;;;;5072864;28;20056;-67
2023/05/24 00:29:30;;;;;;;5.85;1.77;;;21.20;59.90;;;;;;5072506;28;20492;-67
2023/05/24 00:31:56;;;;;;;6.75;1.45;;;21.20;59.90;;;;;;5073416;28;20049;-67
2023/05/24 00:34:21;;;;;;;4.65;1.50;;;21.20;59.90;;;;;;5072298;28;20127;-68
2023/05/24 00:36:47;;;;;;;4.88;1.48;;;21.10;59.80;;;;;;5074218;28;20043;-68
2023/05/24 00:39:12;;;;;;;4.38;1.60;;;21.20;59.90;;;;;;5072854;28;20048;-68
2023/05/24 00:41:38;;;;;;;6.32;2.00;;;21.10;59.80;;;;;;5072698;28;20048;-68
2023/05/24 00:44:03;;;;;;;6.35;1.77;;;21.10;59.80;;;;;;5073942;28;20400;-68
2023/05/24 00:46:33;;;;;;;5.00;1.88;;;21.10;59.80;;;;;;5073040;28;20048;-68
2023/05/24 00:48:59;;;;;;;5.50;1.40;;;21.10;59.80;;;;;;5072074;28;20484;-68
2023/05/24 00:51:26;;;;;;;6.13;1.73;;;21.10;59.80;;;;;;5072559;28;20369;-68
2023/05/24 00:53:51;;;;;;;4.47;1.42;;;21.10;59.80;;;;;;5071526;28;20044;-68
2023/05/24 00:56:17;;;;;;;6.28;1.55;;;21.10;59.80;;;;;;5055510;28;20040;-68
2023/05/24 00:58:43;;;;;;;5.55;1.73;;;21.00;59.70;;;;;;5071427;28;20040;-68
2023/05/24 01:01:08;;;;;;;4.35;1.13;;;21.00;59.70;;;;;;5071965;28;20055;-68
2023/05/24 01:03:34;;;;;;;6.53;1.80;;;21.10;59.80;;;;;;5073435;28;20079;-68
2023/05/24 01:06:02;;;;;;;4.57;1.30;;;21.00;59.70;;;;;;5071705;28;20052;-68
2023/05/24 01:08:38;;;;;;;6.30;1.67;;;21.00;59.70;;;;;;5071639;28;20492;-68
2023/05/24 01:11:42;;;;;;;5.38;1.52;;;21.00;59.70;;;;;;5072552;28;20056;-67
2023/05/24 01:14:25;;;;;;;3.65;1.20;;;21.00;59.60;;;;;;5017621;28;20387;-69
2023/05/24 01:16:59;;;;;;;5.60;1.30;;;21.00;59.70;;;;;;5051961;28;20037;-68
2023/05/24 01:19:35;;;;;;;5.65;1.38;;;21.00;59.70;;;;;;5047110;28;20048;-68
2023/05/24 01:22:12;;;;;;;4.97;1.42;;;21.00;59.60;;;;;;5042812;28;20053;-68
2023/05/24 01:25:02;;;;;;;4.70;1.60;;;21.00;59.60;;;;;;5065597;28;20075;-68
2023/05/24 01:27:29;;;;;;;4.43;1.50;;;20.90;59.60;;;;;;5056466;28;20106;-68
2023/05/24 01:29:55;;;;;;;6.47;1.52;;;20.90;59.60;;;;;;5055126;28;20662;-68
2023/05/24 01:32:20;;;;;;;5.13;1.45;;;21.00;59.70;;;;;;5071377;28;20127;-68
2023/05/24 01:34:46;;;;;;;6.82;1.90;;;21.00;59.70;;;;;;5070893;28;20476;-68
2023/05/24 01:37:12;;;;;;;3.67;1.48;;;21.00;59.70;;;;;;5071079;28;20120;-68
2023/05/24 01:39:37;;;;;;;6.43;1.70;;;20.90;59.60;;;;;;5072853;28;20036;-68
2023/05/24 01:42:22;;;;;;;6.00;1.40;;;20.90;59.60;;;;;;5070596;28;20044;-68
2023/05/24 01:44:55;;;;;;;4.07;1.30;;;20.90;59.60;;;;;;5071915;28;20045;-68
2023/05/24 01:47:27;;;;;;;7.63;1.50;;;20.90;59.60;;;;;;5072575;28;20451;-68
2023/05/24 01:50:17;;;;;;;5.60;1.52;;;20.90;59.70;;;;;;5070541;28;20058;-68
2023/05/24 01:52:43;;;;;;;6.90;1.48;;;20.90;59.60;;;;;;5062816;28;20215;-68
2023/05/24 01:55:08;;;;;;;5.18;1.58;;;20.90;59.60;;;;;;5070507;28;20479;-68
2023/05/24 01:57:34;;;;;;;5.10;1.20;;;20.90;59.70;;;;;;5054544;28;20040;-67
2023/05/24 02:00:00;;;;;;;4.22;1.45;;;20.90;59.70;;;;;;5037513;28;20037;-68
2023/05/24 02:02:26;;;;;;;7.00;1.63;;;20.90;59.60;;;;;;5052063;28;20102;-68
2023/05/24 02:04:51;;;;;;;5.18;1.70;;;20.80;59.60;;;;;;5070603;28;20037;-68
2023/05/24 02:07:18;;;;;;;5.55;1.55;;;20.80;59.60;;;;;;5072322;28;20059;-68
2023/05/24 02:09:43;;;;;;;4.80;1.48;;;20.80;59.60;;;;;;5071180;28;20098;-68
2023/05/24 02:12:09;;;;;;;6.10;1.85;;;20.80;59.60;;;;;;5071838;28;20048;-67
2023/05/24 02:14:36;;;;;;;5.15;1.75;;;20.80;59.60;;;;;;5072474;28;20041;-68
2023/05/24 02:17:02;;;;;;;5.25;1.67;;;20.80;59.70;;;;;;5071648;28;20040;-68
2023/05/24 02:19:28;;;;;;;3.65;1.15;;;20.80;59.60;;;;;;5072088;28;20471;-68
2023/05/24 02:21:53;;;;;;;4.10;1.23;;;20.80;59.60;;;;;;5072380;28;20083;-68
2023/05/24 02:24:19;;;;;;;7.32;1.83;;;20.80;59.60;;;;;;5070044;28;20040;-68
2023/05/24 02:26:45;;;;;;;6.15;1.50;;;20.80;59.60;;;;;;5072064;28;20419;-69
2023/05/24 02:29:10;;;;;;;5.70;1.30;;;20.80;59.70;;;;;;5070484;28;20055;-68
2023/05/24 02:31:36;;;;;;;4.50;1.33;;;20.80;59.60;;;;;;5069993;28;20121;-68
2023/05/24 02:34:01;;;;;;;4.57;1.23;;;20.80;59.70;;;;;;5072032;28;20051;-68
2023/05/24 02:36:27;;;;;;;6.53;1.95;;;20.80;59.70;;;;;;5070833;28;20511;-68
2023/05/24 02:38:52;;;;;;;4.35;1.23;;;20.70;59.60;;;;;;5070137;28;20053;-68
2023/05/24 02:41:18;;;;;;;4.78;1.27;;;20.80;59.60;;;;;;5071715;28;20044;-68
2023/05/24 02:43:44;;;;;;;5.55;1.45;;;20.70;59.60;;;;;;5070373;28;20040;-68
2023/05/24 02:46:10;;;;;;;3.38;1.27;;;20.70;59.60;;;;;;5070016;28;20052;-68
2023/05/24 02:48:35;;;;;;;4.90;1.30;;;20.70;59.60;;;;;;5072040;28;20412;-68
2023/05/24 02:51:02;;;;;;;4.63;1.48;;;20.70;59.60;;;;;;5072154;28;20476;-68
2023/05/24 02:53:28;;;;;;;4.72;1.63;;;20.70;59.60;;;;;;5070917;28;20072;-68
2023/05/24 02:55:54;;;;;;;6.68;1.25;;;20.70;59.60;;;;;;5069977;28;20051;-68
2023/05/24 02:58:20;;;;;;;5.03;1.60;;;20.70;59.60;;;;;;5071083;28;20053;-68
2023/05/24 03:00:45;;;;;;;6.50;1.48;;;20.70;59.60;;;;;;5070301;28;20036;-68
2023/05/24 03:03:11;;;;;;;5.40;1.63;;;20.70;59.60;;;;;;5071785;28;20053;-68
2023/05/24 03:05:36;;;;;;;5.50;1.60;;;20.70;59.60;;;;;;5070927;28;20033;-68
2023/05/24 03:08:03;;;;;;;3.75;1.17;;;20.70;59.60;;;;;;5070779;28;20551;-68
2023/05/24 03:10:28;;;;;;;7.18;1.60;;;20.60;59.60;;;;;;5071279;28;20056;-68
2023/05/24 03:12:54;;;;;;;6.68;1.48;;;20.60;59.60;;;;;;5071019;28;20519;-68
2023/05/24 03:15:20;;;;;;;5.82;1.70;;;20.60;59.60;;;;;;5071245;28;20040;-68
2023/05/24 03:17:45;;;;;;;5.15;1.45;;;20.60;59.60;;;;;;5070315;28;20040;-68
2023/05/24 03:20:11;;;;;;;6.32;1.60;;;20.60;59.60;;;;;;5070438;28;20036;-68
2023/05/24 03:22:37;;;;;;;4.57;1.30;;;20.60;59.60;;;;;;5073309;28;20149;-68
2023/05/24 03:25:03;;;;;;;6.18;1.30;;;20.60;59.70;;;;;;5075374;28;20492;-68
2023/05/24 03:27:29;;;;;;;6.68;1.60;;;20.60;59.70;;;;;;5074185;28;20182;-68
2023/05/24 03:29:54;;;;;;;4.38;1.58;;;20.60;59.60;;;;;;5073816;28;20416;-68
2023/05/24 03:32:20;;;;;;;6.22;1.48;;;20.60;59.60;;;;;;5075177;28;20048;-67
2023/05/24 03:34:45;;;;;;;4.55;1.48;;;20.60;59.60;;;;;;5074781;28;20123;-68
2023/05/24 03:37:11;;;;;;;4.82;1.30;;;20.60;59.70;;;;;;5075063;28;20053;-67
2023/05/24 03:39:36;;;;;;;3.90;1.20;;;20.60;59.60;;;;;;5073641;28;20056;-67
2023/05/24 03:42:02;;;;;;;4.53;1.60;;;20.60;59.70;;;;;;5074453;28;20141;-67
2023/05/24 03:44:28;;;;;;;3.70;1.48;;;20.60;59.60;;;;;;5073654;28;20102;-68
2023/05/24 03:46:53;;;;;;;5.82;1.73;;;20.60;59.70;;;;;;5073685;28;20051;-68
2023/05/24 03:49:19;;;;;;;6.72;1.75;;;20.60;59.70;;;;;;5073760;28;20048;-68
2023/05/24 03:51:44;;;;;;;4.70;1.27;;;20.50;59.60;;;;;;5074872;28;20033;-68
2023/05/24 03:54:10;;;;;;;5.05;1.25;;;20.50;59.60;;;;;;5074458;28;20075;-68
2023/05/24 03:56:36;;;;;;;6.13;1.80;;;20.50;59.60;;;;;;5072659;28;20131;-68
2023/05/24 03:59:02;;;;;;;5.03;1.40;;;20.50;59.60;;;;;;5075020;28;20040;-67
2023/05/24 04:01:30;;;;;;;5.60;1.70;;;20.50;59.60;;;;;;5067732;28;20052;-68
2023/05/24 04:03:56;;;;;;;6.28;1.60;;;20.50;59.60;;;;;;5066561;28;20127;-68
2023/05/24 04:06:27;;;;;;;3.72;1.08;;;20.50;59.50;;;;;;5073434;28;20123;-67
2023/05/24 04:08:57;;;;;;;5.32;1.70;;;20.50;60.20;;;;;;5073639;28;20049;-67
2023/05/24 04:11:22;;;;;;;5.55;1.55;;;20.50;59.60;;;;;;5074028;28;20055;-67
2023/05/24 04:13:50;;;;;;;7.47;1.67;;;20.50;59.60;;;;;;5074670;28;20052;-68
2023/05/24 04:16:15;;;;;;;5.43;1.58;;;20.50;59.60;;;;;;5073565;28;20033;-67
2023/05/24 04:18:41;;;;;;;4.72;1.35;;;20.50;59.60;;;;;;5074675;28;20057;-67
2023/05/24 04:21:06;;;;;;;5.47;1.20;;;20.50;59.60;;;;;;5074003;28;20059;-68
2023/05/24 04:23:32;;;;;;;5.85;1.48;;;20.50;59.60;;;;;;5072179;28;20044;-67
2023/05/24 04:25:58;;;;;;;5.18;1.65;;;20.50;59.50;;;;;;5074267;28;20036;-68
2023/05/24 04:28:25;;;;;;;6.03;1.65;;;20.40;59.50;;;;;;5073822;28;20072;-68
2023/05/24 04:30:50;;;;;;;4.45;1.45;;;20.40;59.50;;;;;;5073529;28;20044;-68
2023/05/24 04:33:16;;;;;;;5.72;1.50;;;20.50;59.60;;;;;;5073520;28;20404;-68
2023/05/24 04:35:43;;;;;;;3.78;1.20;;;20.40;59.50;;;;;;5072494;28;20045;-68
2023/05/24 04:38:11;;;;;;;5.30;1.70;;;20.40;59.50;;;;;;5071981;28;20056;-68
2023/05/24 04:40:37;;;;;;;6.18;1.55;;;20.40;59.50;;;;;;5073799;28;20044;-68
2023/05/24 04:43:03;;;;;;;3.72;1.35;;;20.40;59.50;;;;;;5074190;28;20123;-67
2023/05/24 04:45:29;;;;;;;5.38;1.60;;;20.40;59.50;;;;;;5073031;28;20230;-67
2023/05/24 04:47:56;;;;;;;6.28;1.40;;;20.40;59.50;;;;;;5072447;28;20127;-67
2023/05/24 04:50:21;;;;;;;4.38;1.40;;;20.40;59.50;;;;;;5072962;28;20102;-67
2023/05/24 04:52:47;;;;;;;3.85;1.25;;;20.40;59.50;;;;;;5072754;28;20067;-68
2023/05/24 04:55:12;;;;;;;5.72;1.50;;;20.40;59.50;;;;;;5071865;28;20044;-68
2023/05/24 04:57:38;;;;;;;3.92;1.52;;;20.40;59.50;;;;;;5073748;28;20105;-68
2023/05/24 05:00:04;;;;;;;5.18;1.50;;;20.40;59.60;;;;;;5071424;28;20047;-67
2023/05/24 05:02:30;;;;;;;5.85;1.58;;;20.40;59.50;;;;;;5073437;28;20048;-67
2023/05/24 05:04:55;;;;;;;5.13;1.40;;;20.40;59.50;;;;;;5072840;28;20144;-67
2023/05/24 05:07:21;;;;;;;5.85;1.60;;;20.40;59.50;;;;;;5073262;28;20047;-67
2023/05/24 05:09:46;;;;;;;4.32;1.45;;;20.40;59.50;;;;;;5071948;28;20037;-67
2023/05/24 05:12:13;;;;;;;4.75;1.50;;;20.40;59.50;;;;;;5072270;28;20107;-67
2023/05/24 05:14:38;;;;;;;6.70;1.40;;;20.40;59.50;;;;;;5073362;28;20086;-67
2023/05/24 05:17:04;;;;;;;5.20;1.42;;;20.30;59.40;;;;;;5071329;28;20037;-67
2023/05/24 05:19:30;;;;;;;4.63;1.52;;;20.40;59.50;;;;;;5069803;28;20131;-68
2023/05/24 05:21:55;;;;;;;4.90;1.33;;;20.40;59.50;;;;;;5071420;28;20044;-68
2023/05/24 05:24:21;;;;;;;4.35;1.40;;;20.30;59.40;;;;;;5072927;28;20037;-68
2023/05/24 05:26:46;;;;;;;5.35;1.80;;;20.30;59.40;;;;;;5072350;28;20057;-68
2023/05/24 05:29:12;;;;;;;5.20;1.58;;;20.40;59.50;;;;;;5073063;28;20385;-68
2023/05/24 05:31:38;;;;;;;6.35;1.50;;;20.40;59.50;;;;;;5072626;28;20045;-68
2023/05/24 05:34:08;;;;;;;4.13;1.20;;;20.40;59.50;;;;;;5072522;28;20045;-68
2023/05/24 05:36:39;;;;;;;4.10;1.30;;;20.40;59.50;;;;;;5072766;28;20127;-68
2023/05/24 05:39:08;;;;;;;6.95;1.48;;;20.40;59.50;;;;;;5071663;28;20071;-69
2023/05/24 05:41:36;;;;;;;3.50;1.33;;;20.40;59.70;;;;;;5070486;28;20119;-69
2023/05/24 05:44:02;;;;;;;;;;;20.40;59.60;;;;;;5071830;28;20048;-68
2023/05/24 05:46:27;;;;;;;3.95;1.20;;;20.40;59.70;;;;;;5071667;28;19920;-69
2023/05/24 05:48:53;;;;;;;6.22;1.77;;;20.40;59.80;;;;;;5072101;28;20074;-68
2023/05/24 05:51:18;;;;;;;4.65;1.42;;;20.40;59.90;;;;;;5072253;28;20044;-68
2023/05/24 05:53:44;;;;;;;4.45;1.40;;;20.40;60.10;;;;;;5071280;28;20043;-69
2023/05/24 05:56:12;;;;;;;5.28;1.80;;;20.40;60.10;;;;;;5071686;28;20048;-68
2023/05/24 05:58:38;;;;;;;4.90;1.45;;;20.40;60.20;;;;;;5072793;28;20106;-68
2023/05/24 06:01:04;;;;;;;5.40;1.33;;;20.40;60.30;;;;;;5071744;28;20176;-68
2023/05/24 06:03:29;;;;;;;5.88;1.48;;;20.40;60.20;;;;;;5072053;28;20086;-71
2023/05/24 06:05:55;;;;;;;5.43;1.48;;;20.40;60.00;;;;;;5072402;28;20040;-69
2023/05/24 06:08:21;;;;;;;6.32;1.33;;;20.40;60.10;;;;;;5071404;28;20047;-69
2023/05/24 06:10:46;;;;;;;5.15;1.27;;;20.40;60.00;;;;;;5072367;28;20036;-69
2023/05/24 06:13:12;;;;;;;6.55;1.60;;;20.40;60.00;;;;;;5071098;28;20508;-68
2023/05/24 06:15:38;;;;;;;7.38;1.52;;;20.50;60.00;;;;;;5071394;28;20419;-69
2023/05/24 06:18:04;;;;;;;5.75;1.40;;;20.50;60.20;;;;;;5072153;28;20059;-68
2023/05/24 06:20:29;;;;;;;8.07;1.63;;;20.50;60.20;;;;;;5071353;28;20041;-67
2023/05/24 06:22:55;;;;;;;5.05;1.50;;;20.50;60.20;;;;;;5071117;28;20135;-67
2023/05/24 06:25:23;;;;;;;6.57;1.67;;;20.50;60.20;;;;;;5070552;28;20045;-68
2023/05/24 06:27:49;;;;;;;4.95;1.60;;;20.60;60.40;;;;;;5070794;28;20057;-69
2023/05/24 06:30:15;;;;;;;7.38;1.80;;;20.50;60.40;;;;;;5071265;28;20047;-67
2023/05/24 06:32:41;;;;;;;5.90;1.80;;;20.60;61.10;;;;;;5072387;28;20044;-69
2023/05/24 06:35:07;;;;;;;4.57;1.50;;;20.60;60.60;;;;;;5071956;28;20044;-69
2023/05/24 06:37:33;;;;;;;5.30;1.77;;;20.60;60.70;;;;;;5060640;28;20065;-68
2023/05/24 06:39:58;;;;;;;5.05;1.65;;;20.60;60.80;;;;;;5072001;28;20045;-68
2023/05/24 06:42:24;;;;;;;7.45;2.22;;;20.60;60.80;;;;;;5071550;28;20040;-69
2023/05/24 06:44:49;;;;;;;6.60;1.50;;;20.70;60.90;;;;;;5071204;28;20480;-68
2023/05/24 06:47:15;;;;;;;4.82;1.50;;;20.70;61.00;;;;;;5070612;28;20392;-69
2023/05/24 06:49:40;;;;;;;9.73;1.70;;;20.70;61.00;;;;;;5072067;28;20425;-70
2023/05/24 06:52:07;;;;;;;6.70;1.77;;;20.70;61.00;;;;;;5071223;28;20145;-72
2023/05/24 06:54:32;;;;;;;6.63;1.63;;;20.70;61.00;;;;;;5070602;28;20559;-69
2023/05/24 06:56:58;;;;;;;6.80;1.70;;;20.70;61.00;;;;;;5073861;28;20119;-69
2023/05/24 06:59:23;;;;;;;5.43;1.50;;;20.70;61.10;;;;;;5074896;28;20032;-70
2023/05/24 07:01:52;;;;;;;6.60;1.90;;;20.80;61.10;;;;;;5073836;28;20384;-70
2023/05/24 07:04:18;;;;;;;5.03;1.45;;;20.70;61.10;;;;;;5075695;28;20112;-70
2023/05/24 07:06:44;;;;;;;6.32;1.40;;;20.80;61.10;;;;;;5074799;28;20119;-72
2023/05/24 07:09:10;;;;;;;7.85;1.58;;;20.80;61.10;;;;;;5075702;28;20045;-69
2023/05/24 07:11:35;;;;;;;5.55;1.70;;;20.80;61.20;;;;;;5074571;28;20399;-71
2023/05/24 07:14:01;;;;;;;10.63;1.45;;;20.80;61.70;;;;;;5093729;28;20506;-72
2023/05/24 07:16:26;;;;;;;8.02;1.95;;;20.70;61.00;;;;;;5086396;28;20473;-71
2023/05/24 07:18:54;;;;;;;4.20;1.48;;;20.70;61.00;;;;;;5074877;28;20059;-72
2023/05/24 07:21:20;;;;;;;8.43;2.15;;;20.70;61.00;;;;;;5083314;28;20048;-71
2023/05/24 07:23:45;;;;;;;7.20;1.95;;;20.70;61.00;;;;;;5074885;28;20040;-71
2023/05/24 07:26:11;;;;;;;7.95;1.60;;;20.70;61.00;;;;;;5071781;28;20041;-66
2023/05/24 07:28:39;;;;;;;4.65;1.40;;;20.70;61.00;;;;;;5073313;28;20052;-68
2023/05/24 07:31:05;;;;;;;4.60;1.40;;;20.70;61.00;;;;;;5073329;28;20427;-67
2023/05/24 07:33:30;;;;;;;8.35;1.80;;;20.70;60.90;;;;;;5073771;28;20040;-67
2023/05/24 07:35:57;;;;;;;4.80;1.60;;;20.70;60.90;;;;;;5074764;28;20472;-66
2023/05/24 07:38:22;;;;;;;6.53;1.70;;;20.70;60.80;;;;;;5073995;28;20123;-66
2023/05/24 07:40:48;;;;;;;7.45;1.70;;;20.70;60.80;;;;;;5075817;28;20430;-66
2023/05/24 07:43:14;;;;;;;4.47;1.60;;;20.70;60.80;;;;;;5074480;28;20045;-66
2023/05/24 07:45:39;;;;;;;8.57;1.52;;;20.70;60.80;;;;;;5074813;28;20048;-66
2023/05/24 07:48:05;;;;;;;8.93;1.63;;;20.70;60.80;;;;;;5074609;28;20464;-66
2023/05/24 07:50:31;;;;;;;6.50;1.65;;;20.70;60.90;;;;;;5083655;28;20402;-66
2023/05/24 07:52:56;;;;;;;6.10;2.03;;;20.60;60.90;;;;;;5090664;28;20045;-66
2023/05/24 07:55:22;;;;;;;8.27;1.63;;;20.60;60.80;;;;;;5072210;28;20148;-66
2023/05/24 07:57:47;;;;;;;6.70;1.50;;;20.60;60.80;;;;;;5073569;28;20135;-66
2023/05/24 08:00:13;;;;;;;6.97;1.83;;;20.60;60.80;;;;;;5074280;28;20075;-66
2023/05/24 08:02:40;;;;;;;7.55;1.60;;;20.60;60.90;;;;;;5073949;28;20376;-67
2023/05/24 08:05:08;;;;;;;6.78;1.48;;;20.60;61.00;;;;;;5074337;28;20060;-66
2023/05/24 08:07:34;;;;;;;5.60;1.40;;;20.60;61.00;;;;;;5074238;28;20044;-66
2023/05/24 08:09:59;;;;;;;6.50;1.80;;;20.60;61.00;;;;;;5073870;28;20109;-66
2023/05/24 08:12:25;;;;;;;6.38;1.50;;;20.60;61.00;;;;;;5073141;28;20045;-67
2023/05/24 08:14:51;;;;;;;5.63;1.48;;;20.60;61.00;;;;;;5072381;28;20047;-66
2023/05/24 08:17:16;;;;;;;4.95;1.50;;;20.60;61.10;;;;;;5074115;28;20052;-66
2023/05/24 08:19:42;;;;;;;6.18;1.58;;;20.60;61.00;;;;;;5072906;28;20040;-65
2023/05/24 08:22:08;;;;;;;9.73;2.05;;;20.60;60.90;;;;;;5073561;28;20119;-66
2023/05/24 08:24:33;;;;;;;6.22;1.80;;;20.60;60.90;;;;;;5074667;28;20512;-66
2023/05/24 08:26:59;;;;;;;5.45;1.65;;;20.60;60.90;;;;;;5074334;28;20057;-66
2023/05/24 08:29:24;;;;;;;4.95;2.00;;;20.60;60.90;;;;;;5073339;28;20051;-66
2023/05/24 08:31:50;;;;;;;4.80;1.55;;;20.60;60.90;;;;;;5073437;28;20080;-67
2023/05/24 08:34:16;;;;;;;6.97;1.60;;;20.60;60.80;;;;;;5073893;28;20127;-66
2023/05/24 08:36:42;;;;;;;6.10;2.00;;;20.60;60.70;;;;;;5073591;28;20148;-66
2023/05/24 08:39:08;;;;;;;5.05;1.80;;;20.60;60.60;;;;;;5073719;28;20048;-66
2023/05/24 08:41:36;;;;;;;6.75;1.70;;;20.60;60.50;;;;;;5074234;28;20051;-66
2023/05/24 08:44:02;;;;;;;5.47;1.70;;;20.60;60.40;;;;;;5072967;28;20109;-66
2023/05/24 08:46:28;;;;;;;5.78;1.75;;;20.70;60.40;;;;;;5056186;28;20053;-66
2023/05/24 08:48:53;;;;;;;6.43;1.70;;;20.70;60.20;;;;;;5056011;28;20094;-66
2023/05/24 08:51:19;;;;;;;6.47;1.60;;;20.70;60.10;;;;;;5072664;28;20045;-66
2023/05/24 08:53:47;;;;;;;4.72;1.58;;;20.70;60.10;;;;;;5072848;28;20076;-66
2023/05/24 08:56:16;;;;;;;7.53;1.85;;;20.70;60.00;;;;;;5072272;28;20041;-66
2023/05/24 08:58:42;;;;;;;6.80;1.85;;;20.70;60.00;;;;;;5071738;28;20040;-66
2023/05/24 09:01:09;;;;;;;6.50;2.03;;;20.70;59.90;;;;;;5073028;28;20083;-66
2023/05/24 09:03:35;;;;;;;6.05;2.05;;;20.70;59.80;;;;;;5072415;28;20381;-66
2023/05/24 09:06:01;;;;;;;5.95;1.80;;;20.70;59.80;;;;;;5072506;28;20037;-66
2023/05/24 09:08:27;;;;;;;6.28;1.75;;;20.70;59.80;;;;;;5072163;28;20055;-66
2023/05/24 09:10:53;;;;;;;7.55;1.75;;;20.70;59.80;;;;;;5073227;28;20041;-66
2023/05/24 09:13:18;;;;;;;4.07;1.50;;;20.70;59.70;;;;;;5054739;28;20037;-66
2023/05/24 09:15:44;;;;;;;6.07;1.63;;;20.70;59.60;;;;;;5072371;28;20641;-66
2023/05/24 09:18:09;;;;;;;4.78;1.55;;;20.60;59.50;;;;;;5072470;28;20502;-66
2023/05/24 09:20:35;;;;;;;5.88;1.55;;;20.60;59.50;;;;;;5072355;28;20044;-66
2023/05/24 09:23:01;;;;;;;5.10;1.55;;;20.60;59.40;;;;;;5073448;28;20048;-66
2023/05/24 09:25:28;;;;;;;4.43;1.80;;;20.70;59.30;;;;;;5084848;28;20044;-66
2023/05/24 09:27:55;;;;;;;8.38;2.00;;;20.60;59.20;;;;;;5091976;28;20138;-66
2023/05/24 09:30:21;;;;;;;7.55;1.88;;;20.60;59.20;;;;;;5093022;28;20066;-66
2023/05/24 09:32:59;;;;;;;6.45;1.90;;;20.60;59.20;;;;;;5092832;28;20157;-66
2023/05/24 09:35:25;;;;;;;;;;;20.60;59.10;;;;;;5093505;28;20048;-66
2023/05/24 09:37:54;;;;;;;5.22;1.58;;;20.60;59.10;;;;;;5092036;28;20018;-66
2023/05/24 09:40:19;;;;;;;6.15;2.00;;;20.60;59.10;;;;;;5090824;28;20097;-66
2023/05/24 09:42:45;;;;;;;5.72;1.98;;;20.60;59.00;;;;;;5093317;28;20036;-66
2023/05/24 09:45:11;;;;;;;4.72;1.60;;;20.60;59.00;;;;;;5092873;28;20475;-66
2023/05/24 09:47:38;;;;;;;8.18;2.10;;;20.60;58.90;;;;;;5091158;28;20040;-70
2023/05/24 09:50:05;;;;;;;6.15;1.77;;;20.60;58.60;;;;;;5091712;28;20509;-69
2023/05/24 09:52:31;;;;;;;7.22;1.85;;;20.60;58.40;;;;;;5090539;28;20087;-64
2023/05/24 09:54:56;;;;;;;6.65;1.60;;;20.60;58.20;;;;;;5090307;28;20083;-63
2023/05/24 09:57:22;;;;;;;9.20;2.00;;;20.60;58.20;;;;;;5092055;28;20040;-63
2023/05/24 09:59:49;;;;;;;6.15;1.70;;;20.60;58.10;;;;;;5079433;28;20045;-72
2023/05/24 10:02:14;;;;;;;11.00;1.80;;;20.60;58.10;;;;;;5070186;28;20044;-65
2023/05/24 10:04:40;;;;;;;5.20;1.90;;;20.60;57.90;;;;;;5071468;28;20040;-65
2023/05/24 10:07:06;;;;;;;8.23;1.90;;;20.60;58.10;;;;;;5072315;28;20048;-65
2023/05/24 10:09:35;;;;;;;7.95;1.65;;;20.60;58.10;;;;;;5071872;28;20033;-66
2023/05/24 10:12:05;;;;;;;5.88;2.05;;;20.60;58.20;;;;;;5070898;28;20044;-65
2023/05/24 10:14:35;;;;;;;6.97;1.73;;;20.60;58.20;;;;;;5087748;28;20075;-65
2023/05/24 10:17:03;;;;;;;5.70;1.73;;;20.60;58.20;;;;;;5092516;28;20108;-65
2023/05/24 10:19:29;;;;;;;6.07;1.88;;;20.60;58.20;;;;;;5091819;28;20488;-66
2023/05/24 10:21:56;;;;;;;8.18;1.92;;;20.60;58.90;;;;;;5090172;28;20054;-65
2023/05/24 10:24:25;;;;;;;5.28;1.52;;;20.60;58.20;;;;;;5092532;28;20040;-65
2023/05/24 10:26:51;;;;;;;7.25;1.95;;;20.60;58.20;;;;;;5091312;28;20506;-66
2023/05/24 10:29:47;;;;;;;4.43;1.70;;;20.60;58.20;;;;;;5073554;28;20047;-66
2023/05/24 10:32:14;;;;;;;9.80;2.00;;;20.60;58.20;;;;;;5090750;28;20040;-66
2023/05/24 10:34:40;;;;;;;5.07;1.50;;;20.60;58.20;;;;;;5074389;28;20087;-67
2023/05/24 10:37:07;;;;;;;5.97;1.50;;;20.60;58.20;;;;;;5091441;28;20044;-66
2023/05/24 10:39:33;;;;;;;6.07;1.60;;;20.70;58.30;;;;;;5092454;28;20044;-66
2023/05/24 10:42:05;;;;;;;7.05;1.67;;;20.60;58.40;;;;;;5074269;28;20051;-66
2023/05/24 10:44:31;;;;;;;8.13;1.85;;;20.60;58.40;;;;;;5090263;28;20047;-66
2023/05/24 10:47:09;;;;;;;7.10;1.75;;;20.60;58.50;;;;;;5090699;28;20048;-66
2023/05/24 10:49:36;;;;;;;7.05;1.98;;;20.60;58.40;;;;;;5091539;28;20052;-66
2023/05/24 10:52:08;;;;;;;8.90;2.45;;;20.60;58.50;;;;;;5092431;28;20051;-66
2023/05/24 10:54:37;;;;;;;6.93;1.60;;;20.60;58.50;;;;;;5092487;28;20067;-66
2023/05/24 10:57:03;;;;;;;7.57;1.50;;;20.60;58.50;;;;;;5073810;28;20064;-66
2023/05/24 10:59:36;;;;;;;6.28;1.75;;;20.70;58.60;;;;;;5090592;28;20049;-66
2023/05/24 11:02:02;;;;;;;7.28;1.80;;;20.70;58.70;;;;;;5085156;28;20111;-66
2023/05/24 11:04:39;;;;;;;7.43;2.10;;;20.70;58.70;;;;;;5070983;28;20040;-65
2023/05/24 11:07:08;;;;;;;4.43;1.60;;;20.70;58.70;;;;;;5072047;28;20059;-65
2023/05/24 11:09:44;;;;;;;7.45;2.00;;;20.70;58.70;;;;;;5071775;28;20123;-66
2023/05/24 11:12:12;;;;;;;3.00;1.52;;;20.70;58.80;;;;;;5063814;28;20086;-65
2023/05/24 11:14:38;;;;;;;6.07;2.17;;;20.70;58.80;;;;;;5034590;28;20049;-65
2023/05/24 11:17:05;;;;;;;4.72;1.77;;;20.70;59.00;;;;;;5051773;28;20044;-65
2023/05/24 11:19:34;;;;;;;7.45;1.90;;;20.70;59.00;;;;;;5059492;28;20067;-66
2023/05/24 11:22:01;;;;;;;4.30;1.60;;;20.70;59.10;;;;;;5091645;28;20612;-66
2023/05/24 11:24:27;;;;;;;7.03;1.83;;;20.70;59.10;;;;;;5091566;28;20480;-64
2023/05/24 11:26:53;;;;;;;4.97;1.65;;;20.70;59.00;;;;;;5082688;28;20496;-66
2023/05/24 11:29:21;;;;;;;7.65;2.20;;;20.70;59.20;;;;;;5071591;28;20048;-66
2023/05/24 11:31:56;;;;;;;9.55;1.98;;;20.70;59.30;;;;;;5070325;28;20041;-67
2023/05/24 11:34:23;;;;;;;6.72;2.05;;;20.70;59.40;;;;;;5070724;28;20036;-64
2023/05/24 11:36:48;;;;;;;6.47;1.92;;;20.70;59.50;;;;;;5064984;28;20040;-65
2023/05/24 11:39:14;;;;;;;6.43;1.60;;;20.70;59.60;;;;;;5068732;28;20373;-65
2023/05/24 11:41:40;;;;;;;9.02;1.83;;;20.70;59.60;;;;;;5069647;28;20056;-64
2023/05/24 11:44:06;;;;;;;7.90;1.98;;;20.70;59.70;;;;;;5070731;28;20042;-65
2023/05/24 11:46:32;;;;;;;9.00;2.15;;;20.70;60.40;;;;;;5072982;28;20128;-65
2023/05/24 11:48:58;;;;;;;6.38;1.70;;;20.70;59.90;;;;;;5073371;28;20399;-65
2023/05/24 11:51:30;;;;;;;6.75;2.28;;;20.70;60.00;;;;;;5074329;28;20037;-65
2023/05/24 11:53:56;;;;;;;6.38;1.90;;;20.70;60.00;;;;;;5073993;28;20075;-65
2023/05/24 11:56:22;;;;;;;7.93;2.13;;;20.70;60.00;;;;;;5073643;28;20123;-65
2023/05/24 11:58:49;;;;;;;5.60;1.70;;;20.70;60.00;;;;;;5074477;28;20132;-65
2023/05/24 12:01:25;;;;;;;4.77;1.87;;;20.70;60.00;;;;;;5073616;28;20122;-65
2023/05/24 12:03:52;;;;;;;7.72;2.22;;;20.70;60.10;;;;;;5071196;28;20045;-65
2023/05/24 12:06:17;;;;;;;5.45;1.80;;;20.70;60.10;;;;;;5073949;28;20042;-65
2023/05/24 12:08:43;;;;;;;5.80;1.85;;;20.70;60.10;;;;;;5072320;28;20044;-65
2023/05/24 12:11:09;;;;;;;5.43;1.80;;;20.70;60.10;;;;;;5072788;28;20044;-65
2023/05/24 12:13:35;;;;;;;8.52;2.35;;;20.70;60.10;;;;;;5073252;28;20135;-66
2023/05/24 12:16:01;;;;;;;6.57;1.75;;;20.70;60.10;;;;;;5072284;28;20172;-66
2023/05/24 12:18:27;;;;;;;5.13;1.65;;;20.80;60.20;;;;;;5069761;28;20484;-66
2023/05/24 12:20:53;;;;;;;5.88;1.75;;;20.80;60.10;;;;;;5071810;28;20457;-65
2023/05/24 12:23:20;;;;;;;7.70;1.90;;;20.80;60.10;;;;;;5073898;28;20111;-66
2023/05/24 12:25:46;;;;;;;5.88;1.63;;;20.80;60.10;;;;;;5074001;28;20078;-65
2023/05/24 12:28:12;;;;;;;7.18;2.60;;;20.80;60.10;;;;;;5072660;28;20052;-66
2023/05/24 12:30:41;;;;;;;5.22;1.95;;;20.80;60.10;;;;;;5074007;28;20033;-66
2023/05/24 12:33:08;;;;;;;7.43;1.90;;;20.80;60.00;;;;;;5070776;28;20471;-66
2023/05/24 12:35:34;;;;;;;4.43;1.60;;;20.90;60.10;;;;;;5054771;28;20469;-65
2023/05/24 12:37:59;;;;;;;7.32;1.83;;;20.90;60.10;;;;;;5073575;28;20048;-65
2023/05/24 12:40:25;;;;;;;6.63;1.95;;;20.90;60.10;;;;;;5073459;28;20127;-65
2023/05/24 12:42:55;;;;;;;7.68;1.85;;;20.90;60.10;;;;;;5072950;28;20064;-66
2023/05/24 12:45:24;;;;;;;4.72;1.40;;;20.90;60.10;;;;;;5075833;28;20134;-65